sensor_id;sensor_type;location;lat;lon;timestamp;P1;durP1;ratioP1;P2;durP2;ratioP2
10469;SDS011;5282;47.052;15.458;2024-02-23T00:01:10;0.57;;;0.40;;
10469;SDS011;5282;47.052;15.458;2024-02-23T00:03:37;0.47;;;0.47;;
10469;SDS011;5282;47.052;15.458;2024-02-23T00:06:05;0.40;;;0.40;;
10469;SDS011;5282;47.052;15.458;2024-02-23T00:08:34;0.37;;;0.37;;
10469;SDS011;5282;47.052;15.458;2024-02-23T00:11:01;0.30;;;0.30;;
10469;SDS011;5282;47.052;15.458;2024-02-23T00:13:28;0.40;;;0.40;;
10469;SDS011;5282;47.052;15.458;2024-02-23T00:15:56;0.30;;;0.30;;
10469;SDS011;5282;47.052;15.458;2024-02-23T00:18:24;0.30;;;0.30;;
10469;SDS011;5282;47.052;15.458;2024-02-23T00:20:51;0.60;;;0.60;;
10469;SDS011;5282;47.052;15.458;2024-02-23T00:23:18;0.70;;;0.70;;
10469;SDS011;5282;47.052;15.458;2024-02-23T00:25:45;0.40;;;0.40;;
10469;SDS011;5282;47.052;15.458;2024-02-23T00:28:13;0.60;;;0.60;;
10469;SDS011;5282;47.052;15.458;2024-02-23T00:30:40;0.60;;;0.60;;
10469;SDS011;5282;47.052;15.458;2024-02-23T00:33:08;0.60;;;0.60;;
10469;SDS011;5282;47.052;15.458;2024-02-23T00:35:35;0.70;;;0.70;;
10469;SDS011;5282;47.052;15.458;2024-02-23T00:38:02;0.50;;;0.50;;
10469;SDS011;5282;47.052;15.458;2024-02-23T00:40:29;0.80;;;0.80;;
10469;SDS011;5282;47.052;15.458;2024-02-23T00:42:56;0.90;;;0.90;;
10469;SDS011;5282;47.052;15.458;2024-02-23T00:45:25;0.50;;;0.50;;
10469;SDS011;5282;47.052;15.458;2024-02-23T00:47:52;0.73;;;0.73;;
10469;SDS011;5282;47.052;15.458;2024-02-23T00:50:20;0.60;;;0.60;;
10469;SDS011;5282;47.052;15.458;2024-02-23T00:52:49;0.50;;;0.50;;
10469;SDS011;5282;47.052;15.458;2024-02-23T00:55:16;0.60;;;0.60;;
10469;SDS011;5282;47.052;15.458;2024-02-23T00:57:43;0.53;;;0.53;;
10469;SDS011;5282;47.052;15.458;2024-02-23T01:00:11;0.60;;;0.60;;
10469;SDS011;5282;47.052;15.458;2024-02-23T01:02:39;0.50;;;0.50;;
10469;SDS011;5282;47.052;15.458;2024-02-23T01:05:07;0.60;;;0.60;;
10469;SDS011;5282;47.052;15.458;2024-02-23T01:07:36;0.47;;;0.47;;
10469;SDS011;5282;47.052;15.458;2024-02-23T01:10:03;0.67;;;0.67;;
10469;SDS011;5282;47.052;15.458;2024-02-23T01:12:31;0.60;;;0.60;;
10469;SDS011;5282;47.052;15.458;2024-02-23T01:14:57;0.70;;;0.70;;
10469;SDS011;5282;47.052;15.458;2024-02-23T01:17:24;0.70;;;0.70;;
10469;SDS011;5282;47.052;15.458;2024-02-23T01:19:51;0.60;;;0.60;;
10469;SDS011;5282;47.052;15.458;2024-02-23T01:22:18;0.60;;;0.60;;
10469;SDS011;5282;47.052;15.458;2024-02-23T01:24:46;0.70;;;0.70;;
10469;SDS011;5282;47.052;15.458;2024-02-23T01:27:13;0.87;;;0.60;;
10469;SDS011;5282;47.052;15.458;2024-02-23T01:29:40;0.60;;;0.60;;
10469;SDS011;5282;47.052;15.458;2024-02-23T01:32:07;0.70;;;0.70;;
10469;SDS011;5282;47.052;15.458;2024-02-23T01:34:35;0.60;;;0.60;;
10469;SDS011;5282;47.052;15.458;2024-02-23T01:37:02;0.80;;;0.80;;
10469;SDS011;5282;47.052;15.458;2024-02-23T01:39:29;0.90;;;0.90;;
10469;SDS011;5282;47.052;15.458;2024-02-23T01:41:58;0.83;;;0.83;;
10469;SDS011;5282;47.052;15.458;2024-02-23T01:44:24;0.70;;;0.70;;
10469;SDS011;5282;47.052;15.458;2024-02-23T01:46:51;0.60;;;0.60;;
10469;SDS011;5282;47.052;15.458;2024-02-23T01:49:18;0.57;;;0.57;;
10469;SDS011;5282;47.052;15.458;2024-02-23T01:51:47;0.87;;;0.87;;
10469;SDS011;5282;47.052;15.458;2024-02-23T01:54:14;0.40;;;0.40;;
10469;SDS011;5282;47.052;15.458;2024-02-23T01:56:42;0.50;;;0.50;;
10469;SDS011;5282;47.052;15.458;2024-02-23T01:59:10;0.40;;;0.40;;
10469;SDS011;5282;47.052;15.458;2024-02-23T02:01:38;0.40;;;0.40;;
10469;SDS011;5282;47.052;15.458;2024-02-23T02:04:05;0.50;;;0.50;;
10469;SDS011;5282;47.052;15.458;2024-02-23T02:06:32;0.60;;;0.60;;
10469;SDS011;5282;47.052;15.458;2024-02-23T02:08:59;0.50;;;0.40;;
10469;SDS011;5282;47.052;15.458;2024-02-23T02:11:26;0.30;;;0.30;;
10469;SDS011;5282;47.052;15.458;2024-02-23T02:13:53;0.40;;;0.40;;
10469;SDS011;5282;47.052;15.458;2024-02-23T02:16:21;0.53;;;0.30;;
10469;SDS011;5282;47.052;15.458;2024-02-23T02:18:48;0.83;;;0.33;;
10469;SDS011;5282;47.052;15.458;2024-02-23T02:21:15;0.30;;;0.30;;
10469;SDS011;5282;47.052;15.458;2024-02-23T02:23:42;0.50;;;0.50;;
10469;SDS011;5282;47.052;15.458;2024-02-23T02:26:09;0.40;;;0.40;;
10469;SDS011;5282;47.052;15.458;2024-02-23T02:28:36;0.50;;;0.50;;
10469;SDS011;5282;47.052;15.458;2024-02-23T02:31:03;0.50;;;0.50;;
10469;SDS011;5282;47.052;15.458;2024-02-23T02:33:31;0.47;;;0.47;;
10469;SDS011;5282;47.052;15.458;2024-02-23T02:35:59;0.33;;;0.33;;
10469;SDS011;5282;47.052;15.458;2024-02-23T02:38:26;0.40;;;0.40;;
10469;SDS011;5282;47.052;15.458;2024-02-23T02:40:53;0.53;;;0.40;;
10469;SDS011;5282;47.052;15.458;2024-02-23T02:43:20;0.40;;;0.33;;
10469;SDS011;5282;47.052;15.458;2024-02-23T02:45:47;0.40;;;0.40;;
10469;SDS011;5282;47.052;15.458;2024-02-23T02:48:14;0.90;;;0.90;;
10469;SDS011;5282;47.052;15.458;2024-02-23T02:50:42;0.50;;;0.50;;
10469;SDS011;5282;47.052;15.458;2024-02-23T02:53:09;0.57;;;0.57;;
10469;SDS011;5282;47.052;15.458;2024-02-23T02:55:36;0.43;;;0.43;;
10469;SDS011;5282;47.052;15.458;2024-02-23T02:58:03;0.60;;;0.60;;
10469;SDS011;5282;47.052;15.458;2024-02-23T03:00:30;0.70;;;0.70;;
10469;SDS011;5282;47.052;15.458;2024-02-23T03:02:57;0.50;;;0.50;;
10469;SDS011;5282;47.052;15.458;2024-02-23T03:05:24;0.50;;;0.50;;
10469;SDS011;5282;47.052;15.458;2024-02-23T03:07:52;0.60;;;0.60;;
10469;SDS011;5282;47.052;15.458;2024-02-23T03:10:19;0.60;;;0.60;;
10469;SDS011;5282;47.052;15.458;2024-02-23T03:12:47;0.57;;;0.57;;
10469;SDS011;5282;47.052;15.458;2024-02-23T03:15:14;0.60;;;0.60;;
10469;SDS011;5282;47.052;15.458;2024-02-23T03:17:42;0.70;;;0.70;;
10469;SDS011;5282;47.052;15.458;2024-02-23T03:20:09;0.43;;;0.43;;
10469;SDS011;5282;47.052;15.458;2024-02-23T03:22:48;0.70;;;0.70;;
10469;SDS011;5282;47.052;15.458;2024-02-23T03:25:21;0.70;;;0.70;;
10469;SDS011;5282;47.052;15.458;2024-02-23T03:27:50;1.07;;;0.63;;
10469;SDS011;5282;47.052;15.458;2024-02-23T03:30:17;0.40;;;0.40;;
10469;SDS011;5282;47.052;15.458;2024-02-23T03:32:46;0.50;;;0.50;;
10469;SDS011;5282;47.052;15.458;2024-02-23T03:35:13;0.73;;;0.73;;
10469;SDS011;5282;47.052;15.458;2024-02-23T03:37:41;0.40;;;0.40;;
10469;SDS011;5282;47.052;15.458;2024-02-23T03:40:09;0.50;;;0.40;;
10469;SDS011;5282;47.052;15.458;2024-02-23T03:42:38;0.60;;;0.60;;
10469;SDS011;5282;47.052;15.458;2024-02-23T03:45:05;0.50;;;0.50;;
10469;SDS011;5282;47.052;15.458;2024-02-23T03:47:32;0.57;;;0.57;;
10469;SDS011;5282;47.052;15.458;2024-02-23T03:49:59;0.53;;;0.53;;
10469;SDS011;5282;47.052;15.458;2024-02-23T03:52:26;0.60;;;0.60;;
10469;SDS011;5282;47.052;15.458;2024-02-23T03:54:53;0.57;;;0.57;;
10469;SDS011;5282;47.052;15.458;2024-02-23T03:57:20;1.80;;;0.77;;
10469;SDS011;5282;47.052;15.458;2024-02-23T03:59:54;0.60;;;0.60;;
10469;SDS011;5282;47.052;15.458;2024-02-23T04:02:22;0.60;;;0.60;;
10469;SDS011;5282;47.052;15.458;2024-02-23T04:04:51;0.73;;;0.73;;
10469;SDS011;5282;47.052;15.458;2024-02-23T04:07:28;0.60;;;0.60;;
10469;SDS011;5282;47.052;15.458;2024-02-23T04:10:08;0.70;;;0.70;;
10469;SDS011;5282;47.052;15.458;2024-02-23T04:12:37;0.70;;;0.70;;
10469;SDS011;5282;47.052;15.458;2024-02-23T04:15:09;0.80;;;0.80;;
10469;SDS011;5282;47.052;15.458;2024-02-23T04:17:43;0.57;;;0.57;;
10469;SDS011;5282;47.052;15.458;2024-02-23T04:20:11;0.87;;;0.60;;
10469;SDS011;5282;47.052;15.458;2024-02-23T04:22:39;0.70;;;0.70;;
10469;SDS011;5282;47.052;15.458;2024-02-23T04:25:12;0.80;;;0.80;;
10469;SDS011;5282;47.052;15.458;2024-02-23T04:27:39;0.73;;;0.67;;
10469;SDS011;5282;47.052;15.458;2024-02-23T04:30:07;0.77;;;0.70;;
10469;SDS011;5282;47.052;15.458;2024-02-23T04:32:37;0.70;;;0.70;;
10469;SDS011;5282;47.052;15.458;2024-02-23T04:35:07;0.63;;;0.63;;
10469;SDS011;5282;47.052;15.458;2024-02-23T04:37:35;0.80;;;0.80;;
10469;SDS011;5282;47.052;15.458;2024-02-23T04:40:02;0.90;;;0.90;;
10469;SDS011;5282;47.052;15.458;2024-02-23T04:42:32;0.57;;;0.57;;
10469;SDS011;5282;47.052;15.458;2024-02-23T04:44:59;0.50;;;0.50;;
10469;SDS011;5282;47.052;15.458;2024-02-23T04:47:27;0.70;;;0.70;;
10469;SDS011;5282;47.052;15.458;2024-02-23T04:49:55;0.83;;;0.83;;
10469;SDS011;5282;47.052;15.458;2024-02-23T04:52:23;1.17;;;0.83;;
10469;SDS011;5282;47.052;15.458;2024-02-23T04:54:51;1.33;;;0.93;;
10469;SDS011;5282;47.052;15.458;2024-02-23T04:57:20;1.30;;;0.90;;
10469;SDS011;5282;47.052;15.458;2024-02-23T04:59:48;0.90;;;0.90;;
10469;SDS011;5282;47.052;15.458;2024-02-23T05:02:14;1.07;;;0.80;;
10469;SDS011;5282;47.052;15.458;2024-02-23T05:04:41;2.50;;;0.87;;
10469;SDS011;5282;47.052;15.458;2024-02-23T05:07:10;1.30;;;1.30;;
10469;SDS011;5282;47.052;15.458;2024-02-23T05:09:37;1.00;;;1.00;;
10469;SDS011;5282;47.052;15.458;2024-02-23T05:12:06;1.10;;;1.10;;
10469;SDS011;5282;47.052;15.458;2024-02-23T05:14:34;1.40;;;1.40;;
10469;SDS011;5282;47.052;15.458;2024-02-23T05:17:01;1.30;;;1.30;;
10469;SDS011;5282;47.052;15.458;2024-02-23T05:19:28;1.23;;;1.23;;
10469;SDS011;5282;47.052;15.458;2024-02-23T05:21:55;1.00;;;1.00;;
10469;SDS011;5282;47.052;15.458;2024-02-23T05:24:23;1.00;;;1.00;;
10469;SDS011;5282;47.052;15.458;2024-02-23T05:26:51;1.20;;;1.20;;
10469;SDS011;5282;47.052;15.458;2024-02-23T05:29:17;1.30;;;1.30;;
10469;SDS011;5282;47.052;15.458;2024-02-23T05:31:49;1.20;;;1.20;;
10469;SDS011;5282;47.052;15.458;2024-02-23T05:34:17;1.03;;;1.03;;
10469;SDS011;5282;47.052;15.458;2024-02-23T05:36:45;1.23;;;1.23;;
10469;SDS011;5282;47.052;15.458;2024-02-23T05:39:16;1.20;;;1.20;;
10469;SDS011;5282;47.052;15.458;2024-02-23T05:41:45;1.30;;;1.30;;
10469;SDS011;5282;47.052;15.458;2024-02-23T05:44:12;1.37;;;1.37;;
10469;SDS011;5282;47.052;15.458;2024-02-23T05:46:42;1.13;;;1.13;;
10469;SDS011;5282;47.052;15.458;2024-02-23T05:49:09;1.10;;;1.10;;
10469;SDS011;5282;47.052;15.458;2024-02-23T05:51:36;1.30;;;1.30;;
10469;SDS011;5282;47.052;15.458;2024-02-23T05:54:03;1.30;;;1.30;;
10469;SDS011;5282;47.052;15.458;2024-02-23T05:56:29;1.33;;;1.33;;
10469;SDS011;5282;47.052;15.458;2024-02-23T05:58:58;1.47;;;1.40;;
10469;SDS011;5282;47.052;15.458;2024-02-23T06:01:25;1.50;;;1.50;;
10469;SDS011;5282;47.052;15.458;2024-02-23T06:03:52;1.53;;;1.50;;
10469;SDS011;5282;47.052;15.458;2024-02-23T06:06:20;1.37;;;1.37;;
10469;SDS011;5282;47.052;15.458;2024-02-23T06:08:47;1.63;;;1.53;;
10469;SDS011;5282;47.052;15.458;2024-02-23T06:11:15;1.60;;;1.50;;
10469;SDS011;5282;47.052;15.458;2024-02-23T06:13:41;1.77;;;1.67;;
10469;SDS011;5282;47.052;15.458;2024-02-23T06:16:10;1.43;;;1.43;;
10469;SDS011;5282;47.052;15.458;2024-02-23T06:18:38;1.60;;;1.60;;
10469;SDS011;5282;47.052;15.458;2024-02-23T06:21:13;1.80;;;1.70;;
10469;SDS011;5282;47.052;15.458;2024-02-23T06:23:41;1.90;;;1.70;;
10469;SDS011;5282;47.052;15.458;2024-02-23T06:26:08;1.47;;;1.47;;
10469;SDS011;5282;47.052;15.458;2024-02-23T06:28:36;1.50;;;1.50;;
10469;SDS011;5282;47.052;15.458;2024-02-23T06:31:04;1.40;;;1.40;;
10469;SDS011;5282;47.052;15.458;2024-02-23T06:33:33;1.30;;;1.30;;
10469;SDS011;5282;47.052;15.458;2024-02-23T06:36:01;1.57;;;1.47;;
10469;SDS011;5282;47.052;15.458;2024-02-23T06:38:28;1.70;;;1.70;;
10469;SDS011;5282;47.052;15.458;2024-02-23T06:40:55;1.80;;;1.73;;
10469;SDS011;5282;47.052;15.458;2024-02-23T06:43:22;1.80;;;1.70;;
10469;SDS011;5282;47.052;15.458;2024-02-23T06:45:49;1.47;;;1.47;;
10469;SDS011;5282;47.052;15.458;2024-02-23T06:48:16;1.30;;;1.30;;
10469;SDS011;5282;47.052;15.458;2024-02-23T06:50:45;2.27;;;1.20;;
10469;SDS011;5282;47.052;15.458;2024-02-23T06:53:12;1.40;;;1.40;;
10469;SDS011;5282;47.052;15.458;2024-02-23T06:55:39;1.30;;;1.30;;
10469;SDS011;5282;47.052;15.458;2024-02-23T06:58:07;1.67;;;1.67;;
10469;SDS011;5282;47.052;15.458;2024-02-23T07:00:35;1.70;;;1.70;;
10469;SDS011;5282;47.052;15.458;2024-02-23T07:03:02;1.87;;;1.77;;
10469;SDS011;5282;47.052;15.458;2024-02-23T07:05:30;1.87;;;1.80;;
10469;SDS011;5282;47.052;15.458;2024-02-23T07:07:58;2.63;;;2.53;;
10469;SDS011;5282;47.052;15.458;2024-02-23T07:10:26;4.80;;;4.23;;
10469;SDS011;5282;47.052;15.458;2024-02-23T07:12:53;3.33;;;3.13;;
10469;SDS011;5282;47.052;15.458;2024-02-23T07:15:21;3.40;;;3.30;;
10469;SDS011;5282;47.052;15.458;2024-02-23T07:17:50;3.27;;;3.10;;
10469;SDS011;5282;47.052;15.458;2024-02-23T07:20:16;3.40;;;3.20;;
10469;SDS011;5282;47.052;15.458;2024-02-23T07:22:44;2.97;;;2.70;;
10469;SDS011;5282;47.052;15.458;2024-02-23T07:25:15;2.47;;;2.37;;
10469;SDS011;5282;47.052;15.458;2024-02-23T07:27:42;2.80;;;2.60;;
10469;SDS011;5282;47.052;15.458;2024-02-23T07:30:10;2.40;;;2.30;;
10469;SDS011;5282;47.052;15.458;2024-02-23T07:32:37;2.63;;;2.30;;
10469;SDS011;5282;47.052;15.458;2024-02-23T07:35:04;2.50;;;2.40;;
10469;SDS011;5282;47.052;15.458;2024-02-23T07:37:32;2.40;;;2.30;;
10469;SDS011;5282;47.052;15.458;2024-02-23T07:39:59;2.43;;;2.30;;
10469;SDS011;5282;47.052;15.458;2024-02-23T07:42:27;3.13;;;2.87;;
10469;SDS011;5282;47.052;15.458;2024-02-23T07:44:54;2.53;;;2.43;;
10469;SDS011;5282;47.052;15.458;2024-02-23T07:47:21;2.77;;;2.67;;
10469;SDS011;5282;47.052;15.458;2024-02-23T07:49:48;2.73;;;2.53;;
10469;SDS011;5282;47.052;15.458;2024-02-23T07:52:16;2.30;;;2.20;;
10469;SDS011;5282;47.052;15.458;2024-02-23T07:54:43;1.90;;;1.80;;
10469;SDS011;5282;47.052;15.458;2024-02-23T07:57:10;2.07;;;1.97;;
10469;SDS011;5282;47.052;15.458;2024-02-23T07:59:40;2.53;;;2.43;;
10469;SDS011;5282;47.052;15.458;2024-02-23T08:02:07;2.90;;;2.70;;
10469;SDS011;5282;47.052;15.458;2024-02-23T08:04:34;2.70;;;2.57;;
10469;SDS011;5282;47.052;15.458;2024-02-23T08:07:01;2.73;;;2.63;;
10469;SDS011;5282;47.052;15.458;2024-02-23T08:09:28;2.70;;;2.60;;
10469;SDS011;5282;47.052;15.458;2024-02-23T08:11:55;3.37;;;3.17;;
10469;SDS011;5282;47.052;15.458;2024-02-23T08:14:23;2.30;;;2.20;;
10469;SDS011;5282;47.052;15.458;2024-02-23T08:16:51;2.40;;;2.20;;
10469;SDS011;5282;47.052;15.458;2024-02-23T08:19:18;2.27;;;2.03;;
10469;SDS011;5282;47.052;15.458;2024-02-23T08:21:45;2.30;;;2.20;;
10469;SDS011;5282;47.052;15.458;2024-02-23T08:24:12;2.90;;;2.70;;
10469;SDS011;5282;47.052;15.458;2024-02-23T08:26:39;2.73;;;2.63;;
10469;SDS011;5282;47.052;15.458;2024-02-23T08:29:06;2.90;;;2.80;;
10469;SDS011;5282;47.052;15.458;2024-02-23T08:31:35;3.03;;;2.80;;
10469;SDS011;5282;47.052;15.458;2024-02-23T08:34:03;2.93;;;2.83;;
10469;SDS011;5282;47.052;15.458;2024-02-23T08:36:30;2.43;;;2.33;;
10469;SDS011;5282;47.052;15.458;2024-02-23T08:38:57;2.30;;;2.20;;
10469;SDS011;5282;47.052;15.458;2024-02-23T08:41:24;2.80;;;2.70;;
10469;SDS011;5282;47.052;15.458;2024-02-23T08:43:51;2.90;;;2.80;;
10469;SDS011;5282;47.052;15.458;2024-02-23T08:46:17;2.93;;;2.83;;
10469;SDS011;5282;47.052;15.458;2024-02-23T08:48:44;2.90;;;2.80;;
10469;SDS011;5282;47.052;15.458;2024-02-23T08:51:13;2.27;;;2.17;;
10469;SDS011;5282;47.052;15.458;2024-02-23T08:53:40;2.13;;;1.93;;
10469;SDS011;5282;47.052;15.458;2024-02-23T08:56:07;1.60;;;1.50;;
10469;SDS011;5282;47.052;15.458;2024-02-23T08:58:34;1.93;;;1.83;;
10469;SDS011;5282;47.052;15.458;2024-02-23T09:01:01;1.90;;;1.80;;
10469;SDS011;5282;47.052;15.458;2024-02-23T09:03:29;1.70;;;1.60;;
10469;SDS011;5282;47.052;15.458;2024-02-23T09:05:56;2.27;;;2.10;;
10469;SDS011;5282;47.052;15.458;2024-02-23T09:08:25;2.87;;;2.77;;
10469;SDS011;5282;47.052;15.458;2024-02-23T09:10:51;3.17;;;2.40;;
10469;SDS011;5282;47.052;15.458;2024-02-23T09:13:18;2.30;;;2.20;;
10469;SDS011;5282;47.052;15.458;2024-02-23T09:15:45;1.70;;;1.70;;
10469;SDS011;5282;47.052;15.458;2024-02-23T09:18:12;1.83;;;1.73;;
10469;SDS011;5282;47.052;15.458;2024-02-23T09:20:39;1.50;;;1.50;;
10469;SDS011;5282;47.052;15.458;2024-02-23T09:23:06;1.43;;;1.43;;
10469;SDS011;5282;47.052;15.458;2024-02-23T09:25:34;1.50;;;1.40;;
10469;SDS011;5282;47.052;15.458;2024-02-23T09:28:01;1.20;;;1.20;;
10469;SDS011;5282;47.052;15.458;2024-02-23T09:30:28;1.33;;;1.33;;
10469;SDS011;5282;47.052;15.458;2024-02-23T09:32:55;1.90;;;1.50;;
10469;SDS011;5282;47.052;15.458;2024-02-23T09:35:22;1.87;;;1.30;;
10469;SDS011;5282;47.052;15.458;2024-02-23T09:37:49;1.30;;;1.30;;
10469;SDS011;5282;47.052;15.458;2024-02-23T09:40:16;1.10;;;1.10;;
10469;SDS011;5282;47.052;15.458;2024-02-23T09:42:45;1.33;;;1.33;;
10469;SDS011;5282;47.052;15.458;2024-02-23T09:45:18;1.50;;;1.50;;
10469;SDS011;5282;47.052;15.458;2024-02-23T09:47:46;1.70;;;1.60;;
10469;SDS011;5282;47.052;15.458;2024-02-23T09:50:14;1.43;;;1.43;;
10469;SDS011;5282;47.052;15.458;2024-02-23T09:52:42;1.47;;;1.47;;
10469;SDS011;5282;47.052;15.458;2024-02-23T09:55:09;1.30;;;1.30;;
10469;SDS011;5282;47.052;15.458;2024-02-23T09:57:36;1.70;;;1.27;;
10469;SDS011;5282;47.052;15.458;2024-02-23T10:00:05;1.80;;;1.70;;
10469;SDS011;5282;47.052;15.458;2024-02-23T10:02:34;1.80;;;1.70;;
10469;SDS011;5282;47.052;15.458;2024-02-23T10:05:03;1.80;;;1.80;;
10469;SDS011;5282;47.052;15.458;2024-02-23T10:07:30;2.03;;;1.93;;
10469;SDS011;5282;47.052;15.458;2024-02-23T10:09:58;1.80;;;1.70;;
10469;SDS011;5282;47.052;15.458;2024-02-23T10:12:25;2.00;;;1.90;;
10469;SDS011;5282;47.052;15.458;2024-02-23T10:14:52;2.10;;;2.00;;
10469;SDS011;5282;47.052;15.458;2024-02-23T10:17:22;2.00;;;1.97;;
10469;SDS011;5282;47.052;15.458;2024-02-23T10:19:49;2.10;;;2.00;;
10469;SDS011;5282;47.052;15.458;2024-02-23T10:22:16;2.13;;;2.03;;
10469;SDS011;5282;47.052;15.458;2024-02-23T10:24:43;2.10;;;1.93;;
10469;SDS011;5282;47.052;15.458;2024-02-23T10:27:10;1.87;;;1.77;;
10469;SDS011;5282;47.052;15.458;2024-02-23T10:29:37;1.80;;;1.80;;
10469;SDS011;5282;47.052;15.458;2024-02-23T10:32:04;2.00;;;1.90;;
10469;SDS011;5282;47.052;15.458;2024-02-23T10:34:35;2.17;;;2.07;;
10469;SDS011;5282;47.052;15.458;2024-02-23T10:37:04;2.03;;;1.93;;
10469;SDS011;5282;47.052;15.458;2024-02-23T10:39:33;2.57;;;1.80;;
10469;SDS011;5282;47.052;15.458;2024-02-23T10:42:04;1.97;;;1.93;;
10469;SDS011;5282;47.052;15.458;2024-02-23T10:44:35;2.30;;;2.20;;
10469;SDS011;5282;47.052;15.458;2024-02-23T10:47:04;2.33;;;2.23;;
10469;SDS011;5282;47.052;15.458;2024-02-23T10:49:31;2.80;;;2.70;;
10469;SDS011;5282;47.052;15.458;2024-02-23T10:52:01;2.43;;;2.27;;
10469;SDS011;5282;47.052;15.458;2024-02-23T10:54:29;2.60;;;2.50;;
10469;SDS011;5282;47.052;15.458;2024-02-23T10:56:57;2.53;;;2.43;;
10469;SDS011;5282;47.052;15.458;2024-02-23T10:59:25;2.50;;;2.40;;
10469;SDS011;5282;47.052;15.458;2024-02-23T11:01:53;2.50;;;2.40;;
10469;SDS011;5282;47.052;15.458;2024-02-23T11:04:24;2.67;;;2.47;;
10469;SDS011;5282;47.052;15.458;2024-02-23T11:06:52;2.07;;;2.07;;
10469;SDS011;5282;47.052;15.458;2024-02-23T11:09:23;2.33;;;2.23;;
10469;SDS011;5282;47.052;15.458;2024-02-23T11:11:51;2.50;;;2.40;;
10469;SDS011;5282;47.052;15.458;2024-02-23T11:14:28;2.30;;;2.20;;
10469;SDS011;5282;47.052;15.458;2024-02-23T11:16:56;2.63;;;2.43;;
10469;SDS011;5282;47.052;15.458;2024-02-23T11:19:22;2.33;;;2.23;;
10469;SDS011;5282;47.052;15.458;2024-02-23T11:21:58;2.30;;;2.20;;
10469;SDS011;5282;47.052;15.458;2024-02-23T11:24:27;2.03;;;2.00;;
10469;SDS011;5282;47.052;15.458;2024-02-23T11:26:58;2.97;;;2.43;;
10469;SDS011;5282;47.052;15.458;2024-02-23T11:29:33;2.03;;;1.93;;
10469;SDS011;5282;47.052;15.458;2024-02-23T11:32:02;2.17;;;2.07;;
10469;SDS011;5282;47.052;15.458;2024-02-23T11:34:29;2.73;;;2.60;;
10469;SDS011;5282;47.052;15.458;2024-02-23T11:36:56;2.20;;;2.20;;
10469;SDS011;5282;47.052;15.458;2024-02-23T11:39:26;2.27;;;2.10;;
10469;SDS011;5282;47.052;15.458;2024-02-23T11:41:53;2.33;;;2.17;;
10469;SDS011;5282;47.052;15.458;2024-02-23T11:44:21;1.90;;;1.90;;
10469;SDS011;5282;47.052;15.458;2024-02-23T11:46:48;2.20;;;2.10;;
10469;SDS011;5282;47.052;15.458;2024-02-23T11:49:15;2.07;;;1.97;;
10469;SDS011;5282;47.052;15.458;2024-02-23T11:51:42;2.00;;;1.90;;
10469;SDS011;5282;47.052;15.458;2024-02-23T11:54:09;2.03;;;1.93;;
10469;SDS011;5282;47.052;15.458;2024-02-23T11:56:38;1.73;;;1.63;;
10469;SDS011;5282;47.052;15.458;2024-02-23T11:59:07;2.00;;;1.90;;
10469;SDS011;5282;47.052;15.458;2024-02-23T12:01:34;1.83;;;1.60;;
10469;SDS011;5282;47.052;15.458;2024-02-23T12:04:01;1.57;;;1.50;;
10469;SDS011;5282;47.052;15.458;2024-02-23T12:06:27;1.60;;;1.60;;
10469;SDS011;5282;47.052;15.458;2024-02-23T12:08:57;1.73;;;1.70;;
10469;SDS011;5282;47.052;15.458;2024-02-23T12:11:25;1.93;;;1.83;;
10469;SDS011;5282;47.052;15.458;2024-02-23T12:13:54;1.50;;;1.50;;
10469;SDS011;5282;47.052;15.458;2024-02-23T12:16:22;2.67;;;1.80;;
10469;SDS011;5282;47.052;15.458;2024-02-23T12:18:52;1.70;;;1.70;;
10469;SDS011;5282;47.052;15.458;2024-02-23T12:21:20;1.97;;;1.87;;
10469;SDS011;5282;47.052;15.458;2024-02-23T12:23:48;1.80;;;1.70;;
10469;SDS011;5282;47.052;15.458;2024-02-23T12:26:16;1.80;;;1.70;;
10469;SDS011;5282;47.052;15.458;2024-02-23T12:28:44;1.87;;;1.83;;
10469;SDS011;5282;47.052;15.458;2024-02-23T12:31:13;2.07;;;1.97;;
10469;SDS011;5282;47.052;15.458;2024-02-23T12:33:40;1.90;;;1.80;;
10469;SDS011;5282;47.052;15.458;2024-02-23T12:36:13;1.77;;;1.77;;
10469;SDS011;5282;47.052;15.458;2024-02-23T12:38:40;1.90;;;1.80;;
10469;SDS011;5282;47.052;15.458;2024-02-23T12:41:07;1.70;;;1.70;;
10469;SDS011;5282;47.052;15.458;2024-02-23T12:43:34;1.80;;;1.70;;
10469;SDS011;5282;47.052;15.458;2024-02-23T12:46:01;2.07;;;1.97;;
10469;SDS011;5282;47.052;15.458;2024-02-23T12:48:30;2.03;;;1.93;;
10469;SDS011;5282;47.052;15.458;2024-02-23T12:50:57;1.60;;;1.60;;
10469;SDS011;5282;47.052;15.458;2024-02-23T12:53:30;1.80;;;1.80;;
10469;SDS011;5282;47.052;15.458;2024-02-23T12:56:00;2.30;;;2.20;;
10469;SDS011;5282;47.052;15.458;2024-02-23T12:58:28;2.50;;;2.40;;
10469;SDS011;5282;47.052;15.458;2024-02-23T13:00:55;2.30;;;2.20;;
10469;SDS011;5282;47.052;15.458;2024-02-23T13:03:23;3.13;;;2.10;;
10469;SDS011;5282;47.052;15.458;2024-02-23T13:05:53;2.30;;;2.20;;
10469;SDS011;5282;47.052;15.458;2024-02-23T13:08:20;2.40;;;2.30;;
10469;SDS011;5282;47.052;15.458;2024-02-23T13:10:47;2.23;;;2.13;;
10469;SDS011;5282;47.052;15.458;2024-02-23T13:13:15;2.10;;;2.00;;
10469;SDS011;5282;47.052;15.458;2024-02-23T13:15:42;3.20;;;2.47;;
10469;SDS011;5282;47.052;15.458;2024-02-23T13:18:09;2.30;;;2.20;;
10469;SDS011;5282;47.052;15.458;2024-02-23T13:20:36;2.17;;;2.07;;
10469;SDS011;5282;47.052;15.458;2024-02-23T13:23:05;2.30;;;2.20;;
10469;SDS011;5282;47.052;15.458;2024-02-23T13:25:33;3.00;;;2.90;;
10469;SDS011;5282;47.052;15.458;2024-02-23T13:28:00;2.63;;;2.53;;
10469;SDS011;5282;47.052;15.458;2024-02-23T13:30:28;2.70;;;2.60;;
10469;SDS011;5282;47.052;15.458;2024-02-23T13:32:54;2.37;;;2.27;;
10469;SDS011;5282;47.052;15.458;2024-02-23T13:35:21;3.00;;;2.90;;
10469;SDS011;5282;47.052;15.458;2024-02-23T13:37:48;2.97;;;2.87;;
10469;SDS011;5282;47.052;15.458;2024-02-23T13:40:16;2.93;;;2.80;;
10469;SDS011;5282;47.052;15.458;2024-02-23T13:42:43;3.17;;;3.07;;
10469;SDS011;5282;47.052;15.458;2024-02-23T13:45:15;3.27;;;2.83;;
10469;SDS011;5282;47.052;15.458;2024-02-23T13:47:42;3.30;;;3.10;;
10469;SDS011;5282;47.052;15.458;2024-02-23T13:50:21;4.03;;;3.83;;
10469;SDS011;5282;47.052;15.458;2024-02-23T13:52:48;4.17;;;3.97;;
10469;SDS011;5282;47.052;15.458;2024-02-23T13:55:18;5.33;;;4.83;;
10469;SDS011;5282;47.052;15.458;2024-02-23T13:57:46;5.80;;;5.30;;
10469;SDS011;5282;47.052;15.458;2024-02-23T14:00:15;5.77;;;5.27;;
10469;SDS011;5282;47.052;15.458;2024-02-23T14:02:42;4.17;;;3.97;;
10469;SDS011;5282;47.052;15.458;2024-02-23T14:05:10;4.13;;;3.90;;
10469;SDS011;5282;47.052;15.458;2024-02-23T14:07:37;3.30;;;3.10;;
10469;SDS011;5282;47.052;15.458;2024-02-23T14:10:04;3.60;;;3.50;;
10469;SDS011;5282;47.052;15.458;2024-02-23T14:12:34;4.27;;;3.97;;
10469;SDS011;5282;47.052;15.458;2024-02-23T14:15:01;4.07;;;3.70;;
10469;SDS011;5282;47.052;15.458;2024-02-23T14:17:30;3.90;;;3.60;;
10469;SDS011;5282;47.052;15.458;2024-02-23T14:19:57;3.57;;;3.37;;
10469;SDS011;5282;47.052;15.458;2024-02-23T14:22:24;3.17;;;3.07;;
10469;SDS011;5282;47.052;15.458;2024-02-23T14:24:53;3.60;;;3.40;;
10469;SDS011;5282;47.052;15.458;2024-02-23T14:27:19;3.70;;;3.40;;
10469;SDS011;5282;47.052;15.458;2024-02-23T14:29:48;4.27;;;4.07;;
10469;SDS011;5282;47.052;15.458;2024-02-23T14:32:15;4.10;;;4.00;;
10469;SDS011;5282;47.052;15.458;2024-02-23T14:34:43;3.63;;;3.53;;
10469;SDS011;5282;47.052;15.458;2024-02-23T14:37:10;4.40;;;4.10;;
10469;SDS011;5282;47.052;15.458;2024-02-23T14:39:39;4.10;;;3.80;;
10469;SDS011;5282;47.052;15.458;2024-02-23T14:42:06;4.40;;;4.17;;
10469;SDS011;5282;47.052;15.458;2024-02-23T14:44:33;4.20;;;4.00;;
10469;SDS011;5282;47.052;15.458;2024-02-23T14:47:02;4.33;;;4.13;;
10469;SDS011;5282;47.052;15.458;2024-02-23T14:49:31;3.57;;;3.37;;
10469;SDS011;5282;47.052;15.458;2024-02-23T14:51:58;3.83;;;3.63;;